createdAt,value
2022-11-29T00:01:19.197Z,70.40
2022-11-29T00:03:44.277Z,73.10
2022-11-29T00:06:10.679Z,72.50
2022-11-29T00:08:34.270Z,72.20
2022-11-29T00:10:57.862Z,71.50
2022-11-29T00:13:20.373Z,71.97
2022-11-29T00:15:44.020Z,69.43
2022-11-29T00:18:09.250Z,73.30
2022-11-29T00:20:35.906Z,69.13
2022-11-29T00:22:59.463Z,68.83
2022-11-29T00:25:23.041Z,68.00
2022-11-29T00:27:46.568Z,72.30
2022-11-29T00:30:11.449Z,73.63
2022-11-29T00:32:34.936Z,65.60
2022-11-29T00:34:59.725Z,71.63
2022-11-29T00:37:25.123Z,71.03
2022-11-29T00:39:48.684Z,73.20
2022-11-29T00:42:12.219Z,73.70
2022-11-29T00:44:35.817Z,71.27
2022-11-29T00:46:59.328Z,72.87
2022-11-29T00:49:22.933Z,75.23
2022-11-29T00:51:46.565Z,71.93
2022-11-29T00:54:11.504Z,73.50
2022-11-29T00:56:35.072Z,68.37
2022-11-29T00:58:58.973Z,68.83
2022-11-29T01:01:22.663Z,70.50
2022-11-29T01:03:46.329Z,66.60
2022-11-29T01:06:13.325Z,66.70
2022-11-29T01:08:37.127Z,71.93
2022-11-29T01:11:09.377Z,68.40
2022-11-29T01:13:33.081Z,67.70
2022-11-29T01:15:57.705Z,69.73
2022-11-29T01:18:21.488Z,65.73
2022-11-29T01:20:45.087Z,69.40
2022-11-29T01:23:08.650Z,68.80
2022-11-29T01:25:32.802Z,68.63
2022-11-29T01:27:57.755Z,70.47
2022-11-29T01:30:21.460Z,70.93
2022-11-29T01:32:45.046Z,67.40
2022-11-29T01:35:09.753Z,70.30
2022-11-29T01:37:33.654Z,69.63
2022-11-29T01:39:57.332Z,66.50
2022-11-29T01:42:21.513Z,73.53
2022-11-29T01:45:16.955Z,77.13
2022-11-29T01:47:44.803Z,74.83
2022-11-29T01:50:10.833Z,71.03
2022-11-29T01:52:34.760Z,65.43
2022-11-29T01:55:03.242Z,71.13
2022-11-29T01:57:27.958Z,75.50
2022-11-29T01:59:56.440Z,66.67
2022-11-29T02:02:31.472Z,73.07
2022-11-29T02:04:55.681Z,70.40
2022-11-29T02:07:19.354Z,72.40
2022-11-29T02:09:42.953Z,74.10
2022-11-29T02:12:23.075Z,72.10
2022-11-29T02:15:09.855Z,72.00
2022-11-29T02:17:50.906Z,72.10
2022-11-29T02:20:53.188Z,69.17
2022-11-29T02:23:58.781Z,74.70
2022-11-29T02:26:43.736Z,73.90
2022-11-29T02:29:51.878Z,66.77
2022-11-29T02:33:13.868Z,74.83
2022-11-29T02:36:17.624Z,74.30
2022-11-29T02:39:08.875Z,71.03
2022-11-29T02:41:51.810Z,72.33
2022-11-29T02:44:50.170Z,74.93
2022-11-29T02:47:28.693Z,73.87
2022-11-29T02:50:19.683Z,68.83
2022-11-29T02:52:54.388Z,78.70
2022-11-29T02:55:34.527Z,77.90
2022-11-29T02:58:05.478Z,71.40
2022-11-29T03:00:29.707Z,68.03
2022-11-29T03:03:05.384Z,73.80
2022-11-29T03:05:42.386Z,75.03
2022-11-29T03:08:18.356Z,70.57
2022-11-29T03:10:56.967Z,76.63
2022-11-29T03:13:35.690Z,77.27
2022-11-29T03:16:04.616Z,72.47
2022-11-29T03:18:39.690Z,76.33
2022-11-29T03:21:17.429Z,72.70
2022-11-29T03:23:47.304Z,75.53
2022-11-29T03:26:15.664Z,71.97
2022-11-29T03:28:46.174Z,78.10
2022-11-29T03:31:17.713Z,71.87
2022-11-29T03:33:52.831Z,69.60
2022-11-29T03:36:29.134Z,72.43
2022-11-29T03:38:54.153Z,71.37
2022-11-29T03:41:26.056Z,71.93
2022-11-29T03:43:57.104Z,70.43
2022-11-29T03:46:30.860Z,71.87
2022-11-29T03:49:03.149Z,73.33
2022-11-29T03:51:39.074Z,75.93
2022-11-29T03:54:09.716Z,75.00
2022-11-29T03:56:36.329Z,71.83
2022-11-29T03:59:13.423Z,78.43
2022-11-29T04:02:09.918Z,73.13
2022-11-29T04:05:29.525Z,75.37
2022-11-29T04:08:27.167Z,75.60
2022-11-29T04:11:36.633Z,75.33
2022-11-29T04:14:31.824Z,77.17
2022-11-29T04:17:51.899Z,77.90
2022-11-29T04:21:04.771Z,75.43
2022-11-29T04:23:58.817Z,75.13
2022-11-29T04:27:00.249Z,79.40
2022-11-29T04:29:54.742Z,74.50
2022-11-29T04:32:45.300Z,70.63
2022-11-29T04:35:31.635Z,76.80
2022-11-29T04:38:19.285Z,74.03
2022-11-29T04:41:25.106Z,76.47
2022-11-29T04:44:13.447Z,79.00
2022-11-29T04:46:59.152Z,72.23
2022-11-29T04:49:58.401Z,72.83
2022-11-29T04:52:42.725Z,78.13
2022-11-29T04:55:29.266Z,80.87
2022-11-29T04:58:01.599Z,81.07
2022-11-29T05:00:26.449Z,76.90
2022-11-29T05:02:56.930Z,77.03
2022-11-29T05:05:32.553Z,76.00
2022-11-29T05:08:13.373Z,82.57
2022-11-29T05:10:46.287Z,77.83
2022-11-29T05:13:16.726Z,74.70
2022-11-29T05:16:08.671Z,80.37
2022-11-29T05:18:59.068Z,79.53
2022-11-29T05:21:38.045Z,74.03
2022-11-29T05:24:21.173Z,80.77
2022-11-29T05:26:52.829Z,79.03
2022-11-29T05:29:23.112Z,82.17
2022-11-29T05:31:57.834Z,75.57
2022-11-29T05:34:45.608Z,72.77
2022-11-29T05:37:26.687Z,74.37
2022-11-29T05:40:26.698Z,82.03
2022-11-29T05:43:14.439Z,80.73
2022-11-29T05:45:44.484Z,75.47
2022-11-29T05:48:18.747Z,78.30
2022-11-29T05:50:48.683Z,79.63
2022-11-29T05:53:22.732Z,73.57
2022-11-29T05:56:00.578Z,81.17
2022-11-29T05:58:36.541Z,69.23
2022-11-29T06:01:06.689Z,76.80
2022-11-29T06:03:37.815Z,75.60
2022-11-29T06:06:08.437Z,78.23
2022-11-29T06:08:41.116Z,77.47
2022-11-29T06:11:14.748Z,80.47
2022-11-29T06:13:59.295Z,75.80
2022-11-29T06:16:42.748Z,79.10
2022-11-29T06:19:59.551Z,79.27
2022-11-29T06:22:45.127Z,78.87
2022-11-29T06:25:36.145Z,78.90
2022-11-29T06:28:31.018Z,79.00
2022-11-29T06:31:03.535Z,79.70
2022-11-29T06:33:35.247Z,82.87
2022-11-29T06:36:18.082Z,76.50
2022-11-29T06:38:42.317Z,77.53
2022-11-29T06:41:08.015Z,84.80
2022-11-29T06:43:34.281Z,77.67
2022-11-29T06:46:11.518Z,75.33
2022-11-29T06:48:42.607Z,79.23
2022-11-29T06:51:14.010Z,78.60
2022-11-29T06:53:45.045Z,81.10
2022-11-29T06:56:20.871Z,71.00
2022-11-29T06:58:58.523Z,77.60
2022-11-29T07:01:31.345Z,75.23
2022-11-29T07:04:13.167Z,76.60
2022-11-29T07:06:37.764Z,85.23
2022-11-29T07:09:06.893Z,78.93
2022-11-29T07:11:31.463Z,77.77
2022-11-29T07:13:57.277Z,75.87
2022-11-29T07:16:28.188Z,74.90
2022-11-29T07:19:03.678Z,73.63
2022-11-29T07:21:44.306Z,74.60
2022-11-29T07:24:21.601Z,73.03
2022-11-29T07:26:59.308Z,78.80
2022-11-29T07:29:35.803Z,81.27
2022-11-29T07:32:11.337Z,77.37
2022-11-29T07:34:44.401Z,76.63
2022-11-29T07:37:16.831Z,78.13
2022-11-29T07:39:52.209Z,75.73
2022-11-29T07:42:23.807Z,77.60
2022-11-29T07:45:00.741Z,76.50
2022-11-29T07:47:24.397Z,73.83
2022-11-29T07:49:47.999Z,67.63
2022-11-29T07:52:13.809Z,66.20
2022-11-29T07:54:37.379Z,71.33
2022-11-29T07:57:01.147Z,71.67
2022-11-29T07:59:24.779Z,71.40
2022-11-29T08:01:49.915Z,78.20
2022-11-29T08:04:14.009Z,71.63
2022-11-29T08:06:38.051Z,71.63
2022-11-29T08:09:02.134Z,77.80
2022-11-29T08:11:26.125Z,70.53
2022-11-29T08:13:49.638Z,71.13
2022-11-29T08:16:18.686Z,73.73
2022-11-29T08:18:43.648Z,67.77
2022-11-29T08:21:08.460Z,74.10
2022-11-29T08:23:31.997Z,72.07
2022-11-29T08:26:01.081Z,65.70
2022-11-29T08:28:24.649Z,67.33
2022-11-29T08:30:48.197Z,70.93
2022-11-29T08:33:11.829Z,77.53
2022-11-29T08:35:36.941Z,72.50
2022-11-29T08:38:00.502Z,67.93
2022-11-29T08:40:24.995Z,70.97
2022-11-29T08:42:48.537Z,70.23
2022-11-29T08:45:13.214Z,70.00
2022-11-29T08:47:37.166Z,69.83
2022-11-29T08:50:03.303Z,68.53
2022-11-29T08:52:45.685Z,70.20
2022-11-29T08:55:10.336Z,74.93
2022-11-29T08:57:41.367Z,68.90
2022-11-29T09:00:07.653Z,67.27
2022-11-29T09:02:31.236Z,72.47
2022-11-29T09:04:54.853Z,71.37
2022-11-29T09:07:18.417Z,66.37
2022-11-29T09:09:43.406Z,71.83
2022-11-29T09:12:08.758Z,64.47
2022-11-29T09:14:32.325Z,67.33
2022-11-29T09:16:55.859Z,68.03
2022-11-29T09:19:19.663Z,70.77
2022-11-29T09:21:43.209Z,72.93
2022-11-29T09:24:09.274Z,66.40
2022-11-29T09:26:37.897Z,62.90
2022-11-29T09:29:02.887Z,73.47
2022-11-29T09:31:27.603Z,67.67
2022-11-29T09:33:51.250Z,69.77
2022-11-29T09:36:14.983Z,71.90
2022-11-29T09:38:39.317Z,73.43
2022-11-29T09:41:09.875Z,65.20
2022-11-29T09:43:44.617Z,68.60
2022-11-29T09:46:19.053Z,61.83
2022-11-29T09:49:00.538Z,66.90
2022-11-29T09:51:29.657Z,72.87
2022-11-29T09:54:15.968Z,70.73
2022-11-29T09:56:44.032Z,64.87
2022-11-29T09:59:14.684Z,66.40
2022-11-29T10:01:42.562Z,70.22
2022-11-29T10:04:12.207Z,66.65
2022-11-29T10:06:43.256Z,66.17
2022-11-29T10:09:16.592Z,70.15
2022-11-29T10:11:54.457Z,64.20
2022-11-29T10:14:25.683Z,66.03
2022-11-29T10:16:54.385Z,69.60
2022-11-29T10:19:25.464Z,71.35
2022-11-29T10:21:59.153Z,73.72
2022-11-29T10:24:24.998Z,84.25
2022-11-29T10:26:48.635Z,74.00
2022-11-29T10:29:15.858Z,67.38
2022-11-29T10:31:44.163Z,79.45
2022-11-29T10:34:16.054Z,72.30
2022-11-29T10:36:45.525Z,69.30
2022-11-29T10:39:18.349Z,80.37
2022-11-29T10:41:41.959Z,70.60
2022-11-29T10:44:05.676Z,70.97
2022-11-29T10:46:33.577Z,73.93
2022-11-29T10:49:02.129Z,71.00
2022-11-29T10:51:25.944Z,69.20
2022-11-29T10:53:51.079Z,68.27
2022-11-29T10:56:24.174Z,71.10
2022-11-29T10:58:58.530Z,67.60
2022-11-29T11:01:22.480Z,74.88
2022-11-29T11:03:53.616Z,68.72
2022-11-29T11:06:21.342Z,74.00
2022-11-29T11:08:47.623Z,70.00
2022-11-29T11:11:11.899Z,72.67
2022-11-29T11:13:36.783Z,70.65
2022-11-29T11:16:18.155Z,71.50
2022-11-29T11:18:41.841Z,73.47
2022-11-29T11:21:09.529Z,72.40
2022-11-29T11:23:42.335Z,78.32
2022-11-29T11:26:09.751Z,76.33
2022-11-29T11:28:43.181Z,70.63
2022-11-29T11:31:10.265Z,68.77
2022-11-29T11:33:36.046Z,71.80
2022-11-29T11:36:23.975Z,70.70
2022-11-29T11:38:54.724Z,71.80
2022-11-29T11:41:23.873Z,70.40
2022-11-29T11:44:00.313Z,69.90
2022-11-29T11:46:24.133Z,71.57
2022-11-29T11:48:48.227Z,69.43
2022-11-29T11:51:24.116Z,73.20
2022-11-29T11:53:55.775Z,70.50
2022-11-29T11:56:19.930Z,71.75
2022-11-29T11:58:51.937Z,70.20
2022-11-29T12:01:24.725Z,69.80
2022-11-29T12:03:58.082Z,76.10
2022-11-29T12:06:31.197Z,75.37
2022-11-29T12:09:04.037Z,74.90
2022-11-29T12:11:28.554Z,73.57
2022-11-29T12:13:57.688Z,75.47
2022-11-29T12:16:28.670Z,78.10
2022-11-29T12:18:55.716Z,74.57
2022-11-29T12:21:24.791Z,74.27
2022-11-29T12:23:54.521Z,80.47
2022-11-29T12:26:55.452Z,81.57
2022-11-29T12:29:15.298Z,80.63
2022-11-29T12:31:57.735Z,72.80
2022-11-29T12:34:41.280Z,77.70
2022-11-29T12:37:16.684Z,80.83
2022-11-29T12:39:59.116Z,77.00
2022-11-29T12:42:39.536Z,74.57
2022-11-29T12:45:19.700Z,82.37
2022-11-29T12:47:56.584Z,80.22
2022-11-29T12:50:34.717Z,78.95
2022-11-29T12:53:15.789Z,75.57
2022-11-29T12:55:50.892Z,77.17
2022-11-29T12:58:24.460Z,78.67
2022-11-29T13:00:56.779Z,79.90
2022-11-29T13:03:29.601Z,76.80
2022-11-29T13:06:07.649Z,79.07
2022-11-29T13:08:58.666Z,77.10
2022-11-29T13:11:26.617Z,78.13
2022-11-29T13:14:08.253Z,81.70
2022-11-29T13:16:53.283Z,78.97
2022-11-29T13:19:24.588Z,79.73
2022-11-29T13:22:00.779Z,77.60
2022-11-29T13:24:30.399Z,80.60
2022-11-29T13:26:55.455Z,78.10
2022-11-29T13:29:20.531Z,77.47
2022-11-29T13:31:45.452Z,76.78
2022-11-29T13:34:14.362Z,78.20
2022-11-29T13:36:52.991Z,83.13
2022-11-29T13:39:33.251Z,78.57
2022-11-29T13:42:06.660Z,86.83
2022-11-29T13:44:39.190Z,83.67
2022-11-29T13:47:07.877Z,85.73
2022-11-29T13:49:58.112Z,78.33
2022-11-29T13:52:40.966Z,81.05
2022-11-29T13:55:29.172Z,76.60
2022-11-29T14:00:51.621Z,84.40
2022-11-29T14:03:40.147Z,83.93
2022-11-29T14:06:22.313Z,82.93
2022-11-29T14:09:31.996Z,80.47
2022-11-29T14:12:07.033Z,80.57
2022-11-29T14:14:38.513Z,78.57
2022-11-29T14:17:05.384Z,85.55
2022-11-29T14:19:33.806Z,84.93
2022-11-29T14:22:33.357Z,80.63
2022-11-29T14:25:01.401Z,80.73
2022-11-29T14:27:52.110Z,82.57
2022-11-29T14:30:48.871Z,78.60
2022-11-29T14:33:42.559Z,84.03
2022-11-29T14:36:26.798Z,83.80
2022-11-29T14:39:04.076Z,80.87
2022-11-29T14:41:44.279Z,79.37
2022-11-29T14:44:18.603Z,78.47
2022-11-29T14:46:42.343Z,80.87
2022-11-29T14:49:07.395Z,81.30
2022-11-29T14:51:33.516Z,77.67
2022-11-29T14:54:09.272Z,85.57
2022-11-29T14:56:42.620Z,82.13
2022-11-29T14:59:44.789Z,76.57
2022-11-29T15:02:26.174Z,88.25
2022-11-29T15:04:53.752Z,80.75
2022-11-29T15:07:21.237Z,82.95
2022-11-29T15:09:45.471Z,83.57
2022-11-29T15:12:14.058Z,86.57
2022-11-29T15:14:49.696Z,85.95
2022-11-29T15:17:25.960Z,80.70
2022-11-29T15:20:37.516Z,83.68
2022-11-29T15:23:07.335Z,86.27
2022-11-29T15:25:33.166Z,80.43
2022-11-29T15:27:58.477Z,81.37
2022-11-29T15:30:39.068Z,79.67
2022-11-29T15:33:05.908Z,85.57
2022-11-29T15:35:30.204Z,85.30
2022-11-29T15:37:54.902Z,83.53
2022-11-29T15:40:22.810Z,86.73
2022-11-29T15:42:50.878Z,84.23
2022-11-29T15:45:33.534Z,81.32
2022-11-29T15:48:12.627Z,87.27
2022-11-29T15:50:36.549Z,86.33
2022-11-29T15:53:06.920Z,86.00
2022-11-29T15:55:32.599Z,87.17
2022-11-29T15:58:02.634Z,87.23
2022-11-29T16:00:31.477Z,91.00
2022-11-29T16:02:59.642Z,87.60
2022-11-29T16:05:27.258Z,84.73
2022-11-29T16:07:54.625Z,85.80
2022-11-29T16:10:22.262Z,85.30
2022-11-29T16:12:57.792Z,83.80
2022-11-29T16:15:31.263Z,83.10
2022-11-29T16:17:54.915Z,77.90
2022-11-29T16:20:26.992Z,91.87
2022-11-29T16:23:05.572Z,87.47
2022-11-29T16:25:33.286Z,91.00
2022-11-29T16:28:01.442Z,92.83
2022-11-29T16:30:27.981Z,89.37
2022-11-29T16:32:56.373Z,96.70
2022-11-29T16:35:24.439Z,88.23
2022-11-29T16:37:48.743Z,90.93
2022-11-29T16:40:24.676Z,90.43
2022-11-29T16:43:19.658Z,89.83
2022-11-29T16:45:44.325Z,88.73
2022-11-29T16:48:31.799Z,91.03
2022-11-29T16:51:20.412Z,89.37
2022-11-29T16:53:47.759Z,89.20
2022-11-29T16:56:13.972Z,84.33
2022-11-29T16:59:16.653Z,91.60
2022-11-29T17:01:27.305Z,87.67
2022-11-29T17:03:51.737Z,91.40
2022-11-29T17:06:16.751Z,86.03
2022-11-29T17:08:40.277Z,87.47
2022-11-29T17:11:03.826Z,93.23
2022-11-29T17:13:27.370Z,95.23
2022-11-29T17:15:52.361Z,92.30
2022-11-29T17:18:15.854Z,95.13
2022-11-29T17:20:39.526Z,82.47
2022-11-29T17:23:03.019Z,85.87
2022-11-29T17:25:26.623Z,85.77
2022-11-29T17:27:50.289Z,92.47
2022-11-29T17:30:15.237Z,91.77
2022-11-29T17:32:40.129Z,85.93
2022-11-29T17:35:03.920Z,85.77
2022-11-29T17:37:27.487Z,85.27
2022-11-29T17:39:51.078Z,85.47
2022-11-29T17:42:14.699Z,88.53
2022-11-29T17:44:38.432Z,89.37
2022-11-29T17:47:01.956Z,91.00
2022-11-29T17:49:27.296Z,95.00
2022-11-29T17:51:52.670Z,96.30
2022-11-29T17:54:16.497Z,76.80
2022-11-29T17:56:40.170Z,89.40
2022-11-29T17:59:05.253Z,91.30
2022-11-29T18:01:31.287Z,87.17
2022-11-29T18:03:57.130Z,93.27
2022-11-29T18:06:24.048Z,96.60
2022-11-29T18:08:50.011Z,89.73
2022-11-29T18:11:15.750Z,88.63
2022-11-29T18:13:39.920Z,90.83
2022-11-29T18:16:06.805Z,84.33
2022-11-29T18:18:30.355Z,94.17
2022-11-29T18:20:58.629Z,92.77
2022-11-29T18:23:23.620Z,86.60
2022-11-29T18:25:58.330Z,92.60
2022-11-29T18:28:21.873Z,92.43
2022-11-29T18:30:45.385Z,94.43
2022-11-29T18:33:09.110Z,84.40
2022-11-29T18:35:32.592Z,83.80
2022-11-29T18:38:14.742Z,90.23
2022-11-29T18:40:42.092Z,85.97
2022-11-29T18:43:05.609Z,92.10
2022-11-29T18:45:29.158Z,93.67
2022-11-29T18:47:52.677Z,94.10
2022-11-29T18:50:16.461Z,95.97
2022-11-29T18:52:40.899Z,90.77
2022-11-29T18:55:04.808Z,92.47
2022-11-29T18:57:29.677Z,99.13
2022-11-29T18:59:53.277Z,97.23
2022-11-29T19:02:20.000Z,96.47
2022-11-29T19:04:43.970Z,98.97
2022-11-29T19:07:07.698Z,99.17
2022-11-29T19:09:31.316Z,102.57
2022-11-29T19:11:54.829Z,92.57
2022-11-29T19:14:20.408Z,94.57
2022-11-29T19:16:46.430Z,99.50
2022-11-29T19:19:10.171Z,97.07
2022-11-29T19:21:35.373Z,96.37
2022-11-29T19:24:01.446Z,97.47
2022-11-29T19:26:28.665Z,93.90
2022-11-29T19:28:52.433Z,96.37
2022-11-29T19:31:20.066Z,94.50
2022-11-29T19:33:45.338Z,93.87
2022-11-29T19:36:12.195Z,94.87
2022-11-29T19:38:37.412Z,90.80
2022-11-29T19:41:01.370Z,91.63
2022-11-29T19:43:24.993Z,94.97
2022-11-29T19:45:48.613Z,94.87
2022-11-29T19:48:13.611Z,93.20
2022-11-29T19:50:37.189Z,101.07
2022-11-29T19:53:00.736Z,96.97
2022-11-29T19:55:24.276Z,93.73
2022-11-29T19:57:47.913Z,91.90
2022-11-29T20:00:13.516Z,91.97
2022-11-29T20:02:37.805Z,95.77
2022-11-29T20:05:02.719Z,91.73
2022-11-29T20:07:26.349Z,94.53
2022-11-29T20:09:49.963Z,101.47
2022-11-29T20:12:13.545Z,100.50
2022-11-29T20:14:37.094Z,108.83
2022-11-29T20:17:00.659Z,95.37
2022-11-29T20:19:24.214Z,101.80
2022-11-29T20:21:50.260Z,94.70
2022-11-29T20:24:15.270Z,99.23
2022-11-29T20:26:41.509Z,103.40
2022-11-29T20:29:05.861Z,95.95
2022-11-29T20:31:30.569Z,96.63
2022-11-29T20:33:57.302Z,92.93
2022-11-29T20:36:38.963Z,93.63
2022-11-29T20:39:16.897Z,93.13
2022-11-29T20:41:49.748Z,96.13
2022-11-29T20:44:21.771Z,94.23
2022-11-29T20:46:45.808Z,104.32
2022-11-29T20:49:10.539Z,92.87
2022-11-29T20:51:42.331Z,93.77
2022-11-29T20:54:07.385Z,93.43
2022-11-29T20:56:30.953Z,103.33
2022-11-29T20:58:54.571Z,97.88
2022-11-29T21:01:18.132Z,94.63
2022-11-29T21:03:41.783Z,98.27
2022-11-29T21:06:07.346Z,100.50
2022-11-29T21:08:32.872Z,100.97
2022-11-29T21:11:04.233Z,100.50
2022-11-29T21:13:28.450Z,98.13
2022-11-29T21:15:52.737Z,96.17
2022-11-29T21:18:24.002Z,101.57
2022-11-29T21:20:54.845Z,103.03
2022-11-29T21:23:29.872Z,96.03
2022-11-29T21:26:03.612Z,103.53
2022-11-29T21:28:35.771Z,101.07
2022-11-29T21:31:00.176Z,107.77
2022-11-29T21:33:24.376Z,102.37
2022-11-29T21:35:48.858Z,98.10
2022-11-29T21:38:24.592Z,99.68
2022-11-29T21:40:48.166Z,100.60
2022-11-29T21:43:13.062Z,97.97
2022-11-29T21:45:36.635Z,107.03
2022-11-29T21:48:01.693Z,99.13
2022-11-29T21:50:25.300Z,105.80
2022-11-29T21:52:52.432Z,102.80
2022-11-29T21:55:16.150Z,100.70
2022-11-29T21:57:39.885Z,104.30
2022-11-29T22:00:05.794Z,105.40
2022-11-29T22:02:29.420Z,102.33
2022-11-29T22:04:53.049Z,100.37
2022-11-29T22:07:16.598Z,112.50
2022-11-29T22:09:40.257Z,106.37
2022-11-29T22:12:19.528Z,111.33
2022-11-29T22:14:47.577Z,108.13
2022-11-29T22:17:12.639Z,104.43
2022-11-29T22:19:37.366Z,105.43
2022-11-29T22:22:02.865Z,109.23
2022-11-29T22:24:29.327Z,108.63
2022-11-29T22:26:53.953Z,120.70
2022-11-29T22:29:18.177Z,122.30
2022-11-29T22:31:42.552Z,104.03
2022-11-29T22:34:07.671Z,112.00
2022-11-29T22:36:31.242Z,106.32
2022-11-29T22:38:56.846Z,107.87
2022-11-29T22:41:20.497Z,108.10
2022-11-29T22:43:44.531Z,111.17
2022-11-29T22:46:12.391Z,104.90
2022-11-29T22:48:38.908Z,109.30
2022-11-29T22:51:09.739Z,108.67
2022-11-29T22:53:33.447Z,104.73
2022-11-29T22:56:00.067Z,110.82
2022-11-29T22:58:23.622Z,107.07
2022-11-29T23:00:47.251Z,108.57
2022-11-29T23:03:10.856Z,114.57
2022-11-29T23:05:34.862Z,110.68
2022-11-29T23:07:59.866Z,108.83
2022-11-29T23:10:23.410Z,106.23
2022-11-29T23:12:47.498Z,107.80
2022-11-29T23:15:11.823Z,113.10
2022-11-29T23:17:35.418Z,109.57
2022-11-29T23:19:58.896Z,109.32
2022-11-29T23:22:22.439Z,106.47
2022-11-29T23:24:47.418Z,104.13
2022-11-29T23:27:11.711Z,103.20
2022-11-29T23:29:35.193Z,109.80
2022-11-29T23:31:58.893Z,114.27
2022-11-29T23:34:22.444Z,107.85
2022-11-29T23:36:52.370Z,113.20
2022-11-29T23:39:16.682Z,110.20
2022-11-29T23:41:41.568Z,108.17
2022-11-29T23:44:06.358Z,111.30
2022-11-29T23:46:29.879Z,111.50
2022-11-29T23:48:53.802Z,113.53
2022-11-29T23:51:18.505Z,111.87
2022-11-29T23:53:42.564Z,110.53
2022-11-29T23:56:08.940Z,112.60
2022-11-29T23:58:34.852Z,109.03
